createdAt,value
2022-08-04T03:38:20.846Z,5.00
2022-08-04T03:40:54.711Z,5.40
2022-08-04T03:43:58.279Z,6.00
2022-08-04T03:46:22.377Z,5.00
2022-08-04T03:48:57.223Z,4.00
2022-08-04T03:51:49.292Z,5.00
2022-08-04T03:54:23.519Z,4.00
2022-08-04T03:56:58.269Z,4.25
2022-08-04T03:59:33.585Z,4.00
2022-08-04T04:02:47.918Z,4.00
2022-08-04T04:05:22.175Z,5.20
2022-08-04T04:07:59.659Z,5.00
2022-08-04T04:10:35.337Z,5.00
2022-08-04T07:39:48.310Z,7.00
2022-08-04T07:42:23.056Z,6.00
2022-08-04T07:44:57.561Z,8.00
2022-08-04T07:47:32.435Z,7.00
2022-08-04T07:50:08.651Z,6.50
2022-08-04T07:52:43.785Z,8.75
2022-08-04T07:55:17.632Z,8.00
2022-08-04T08:05:01.201Z,7.00
2022-08-04T08:07:35.281Z,8.00
2022-08-04T08:10:09.167Z,6.00
2022-08-04T08:12:53.433Z,7.00
2022-08-04T08:20:53.342Z,8.00
2022-08-04T08:31:55.373Z,6.00
2022-08-04T08:34:27.981Z,6.20
2022-08-04T08:37:10.112Z,6.50
2022-08-04T08:45:35.818Z,6.20
2022-08-04T08:48:09.711Z,6.00
2022-08-04T08:50:45.387Z,6.00
2022-08-04T08:53:19.180Z,5.00
2022-08-04T08:55:53.088Z,5.00
2022-08-04T08:58:26.892Z,7.00
2022-08-04T09:01:00.803Z,7.00
2022-08-04T09:03:35.935Z,6.00
2022-08-04T09:06:09.914Z,6.00
2022-08-04T09:08:43.945Z,6.00
2022-08-04T09:11:17.971Z,7.00
2022-08-04T09:14:08.708Z,5.00
2022-08-04T09:16:52.165Z,5.00
2022-08-04T09:19:38.098Z,6.80
2022-08-04T09:22:36.557Z,7.00
2022-08-04T09:32:06.477Z,6.00
2022-08-04T09:34:44.107Z,7.00
2022-08-04T09:37:17.993Z,7.00
2022-08-04T09:46:32.102Z,5.00
2022-08-04T09:49:35.701Z,4.40
2022-08-04T09:57:55.241Z,8.50
2022-08-04T10:00:47.437Z,7.00
2022-08-04T10:03:22.668Z,6.00
2022-08-04T10:06:07.164Z,5.60
2022-08-04T10:15:29.932Z,6.00
2022-08-04T10:23:31.954Z,5.00
2022-08-04T10:32:23.978Z,5.00
2022-08-04T10:34:58.931Z,6.00
2022-08-04T10:38:00.335Z,5.40
2022-08-04T10:46:56.562Z,5.00
2022-08-04T10:56:20.029Z,6.00
2022-08-04T11:04:44.023Z,5.00
2022-08-04T11:07:18.094Z,5.00
2022-08-04T11:09:56.330Z,5.00
2022-08-04T11:12:34.241Z,5.00
2022-08-04T11:15:08.290Z,5.00
2022-08-04T11:24:17.939Z,7.00
2022-08-04T11:32:23.783Z,7.50
2022-08-04T11:42:06.631Z,7.50
2022-08-04T11:44:59.199Z,10.60
2022-08-04T11:53:36.674Z,11.00
2022-08-04T12:02:26.352Z,13.00
2022-08-04T12:05:00.320Z,15.00
2022-08-04T12:07:41.492Z,16.60
2022-08-04T12:10:16.000Z,19.00
2022-08-04T12:15:58.737Z,17.00
2022-08-04T12:18:52.608Z,15.00
2022-08-04T12:21:27.238Z,16.50
2022-08-04T12:24:01.751Z,16.60
2022-08-04T12:26:35.664Z,17.00
2022-08-04T12:29:17.689Z,17.50
2022-08-04T12:31:51.629Z,18.20
2022-08-04T12:34:25.409Z,16.50
2022-08-04T12:37:04.307Z,18.50
2022-08-04T12:40:21.338Z,15.80
2022-08-04T12:42:33.374Z,15.75
2022-08-04T12:45:08.498Z,17.00
2022-08-04T12:47:43.571Z,17.00
2022-08-04T12:50:19.347Z,17.00
2022-08-04T12:53:03.558Z,19.50
2022-08-04T12:55:38.139Z,20.00
2022-08-04T12:58:12.443Z,20.00
2022-08-04T13:00:47.414Z,20.25
2022-08-04T13:03:21.388Z,20.50
2022-08-04T13:05:55.246Z,19.80
2022-08-04T13:09:09.284Z,19.50
2022-08-04T13:11:43.654Z,22.00
2022-08-04T13:14:26.971Z,20.00
2022-08-04T13:17:03.889Z,20.00
2022-08-04T13:19:55.908Z,20.00
2022-08-04T13:22:30.789Z,21.00
2022-08-04T13:26:40.286Z,20.00
2022-08-04T13:27:59.134Z,21.60
2022-08-04T15:21:05.820Z,24.00
2022-08-04T15:23:52.018Z,23.40
2022-08-04T15:26:45.414Z,24.00
2022-08-04T15:29:59.508Z,22.50
2022-08-04T15:32:33.665Z,22.25
2022-08-04T15:35:07.692Z,24.00
2022-08-04T15:37:41.568Z,21.20
2022-08-04T15:40:15.683Z,23.00
2022-08-04T15:42:51.426Z,23.00
2022-08-04T15:46:41.490Z,22.00
2022-08-04T15:48:23.115Z,23.00
2022-08-04T15:51:00.666Z,20.50
2022-08-04T15:54:02.345Z,22.50
2022-08-04T15:56:28.675Z,23.25
2022-08-04T15:59:04.651Z,24.00
2022-08-04T16:01:38.510Z,20.60
